Impacts TAF Board INFO
FOR SITUATIONAL AWARENESS. NOT TO BE USED FOR FLIGHT PLANNING PURPOSES.
IDs:

KLAS - Las Vegas/McCarran I, NV, US

Issued at 0848 UTC 23 May 2018
Updated at 1058 UTC 23 May 2018
Potential Impact None Slight Moderate High
Time0956Z 23/11Z 23/12Z 23/13Z 23/14Z 23/15Z 23/16Z 23/17Z 23/18Z 23/19Z 23/20Z 23/21Z 23/22Z 23/23Z>>
Type OBS PRVL PRVL PRVL PRVL PRVL PRVL PRVL PRVL PRVL PRVL PRVL PRVL PRVL
VIS 10 >6 >6 >6 >6 >6 >6 >6 >6 >6 >6 >6 >6 >6
CIG -- -- -- -- -- -- -- -- -- -- -- -- -- --
Cover SCT SCT SCT SCT SCT SCT SCT SCT SKC SKC FEW FEW FEW FEW
FltCat VFR VFR VFR VFR VFR VFR VFR VFR VFR VFR VFR VFR VFR VFR
WX -- -- -- -- -- -- -- -- -- -- -- -- -- --
WDir VRB VRB VRB VRB VRB VRB VRB VRB 110 110 140 140 140 140
WSpd 0 6 6 6 6 6 6 6 8 8 10 10 10 10
WGst -- -- -- -- -- -- -- -- -- -- 19 19 19 19

Raw TAF
KLAS 230848Z 2309/2412 VRB06KT P6SM FEW120 SCT150
  FM231800 11008KT P6SM SKC
  FM232000 14010G19KT P6SM FEW120
  FM240400 19009KT P6SM SKC
  FM241100 VRB06KT P6SM SKC


Raw METAR
KLAS 230956Z 00000KT 10SM SCT110 SCT250 22/02 A2980 RMK AO2 SLP067 T02220022
KLAS 230856Z 00000KT 10SM FEW250 23/02 A2979 RMK AO2 SLP065 T02330022 53002
KLAS 230756Z 19004KT 10SM FEW150 FEW250 24/02 A2979 RMK AO2 SLP065 T02390022 403060194

METAR Board
Radar Display
Forecast Discussion

FOR SITUATIONAL AWARENESS. NOT TO BE USED FOR FLIGHT PLANNING PURPOSES.